Impacts TAF Board
For situational awareness. Not to be used for flight planning purposes.
IDs:

KSFO - San Francisco Intl, CA, US

Issued at 0001 UTC 12 Dec 2018
Updated at 0232 UTC 12 Dec 2018
Potential Impact None Slight Moderate High
Time<<13/03Z 13/04Z 13/05Z 13/06Z 13/07Z 13/08Z 13/09Z 13/10Z 13/11Z 13/12Z 13/13Z 13/14Z 13/15Z
Type PRVL PRVL PRVL
VIS >6 >6 >6
CIG -- -- --
Cover SCT SCT SCT
FltCat VFR VFR VFR
WX -- -- --
WDir 290 290 290
WSpd 10 10 10
WGst -- -- --
Raw TAF
KSFO 120001Z 1200/1306 27012KT P6SM FEW008 SCT250
  FM120400 29005KT P6SM FEW008 SCT250
  FM120900 VRB04KT P6SM BKN008
  FM121200 28008KT 6SM BR BKN005
  FM121800 03008KT 6SM BR SCT008 SCT250
  FM122100 36010KT P6SM SCT200
  FM130000 29010KT P6SM SCT200


METAR Board
Radar Display
Forecast Discussion
For situational awareness. Not to be used for flight planning purposes.